Terminal Aerodrome Forecast
Issued by NWS Duluth, MN

Home | Current Version | Previous Version | Text Only | Print | Product List | Glossary On
Versions: 1 2 3 4 5 6 7 8 9 10 11 12 13 14 15 16 17 18 19 20 21
000
FTUS43 KDLH 172338
TAFDLH
TAF
KDLH 172338Z 1800/1824 10013KT P6SM SCT045
     FM181000 06010KT P6SM BKN030
     FM181600 06010G17KT P6SM BKN025
     FM182000 07010G18KT P6SM BKN035=

USA.gov is the U.S. government's official web portal to all federal, state and local government web resources and services.